createdAt,value
2022-10-15T00:01:28.964Z,12.00
2022-10-15T00:03:56.335Z,12.00
2022-10-15T00:06:23.560Z,11.90
2022-10-15T00:08:50.677Z,11.90
2022-10-15T00:11:23.446Z,11.90
2022-10-15T00:13:52.579Z,11.90
2022-10-15T00:16:22.604Z,11.90
2022-10-15T00:18:51.774Z,11.90
2022-10-15T00:21:20.544Z,11.90
2022-10-15T00:23:49.356Z,11.90
2022-10-15T00:26:20.174Z,11.90
2022-10-15T00:28:50.264Z,12.00
2022-10-15T00:31:20.393Z,12.00
2022-10-15T00:33:49.808Z,12.00
2022-10-15T00:36:19.955Z,12.00
2022-10-15T00:38:47.154Z,12.10
2022-10-15T00:41:16.929Z,12.10
2022-10-15T00:43:50.892Z,12.10
2022-10-15T00:46:20.753Z,12.10
2022-10-15T00:48:51.648Z,12.10
2022-10-15T00:51:21.017Z,12.10
2022-10-15T00:53:49.111Z,12.10
2022-10-15T00:56:21.368Z,12.10
2022-10-15T00:58:49.623Z,12.10
2022-10-15T01:01:17.088Z,12.10
2022-10-15T01:03:44.247Z,12.10
2022-10-15T01:06:11.551Z,12.10
2022-10-15T01:08:38.723Z,12.10
2022-10-15T01:11:31.114Z,12.10
2022-10-15T01:14:28.890Z,12.10
2022-10-15T01:17:05.242Z,12.10
2022-10-15T01:20:10.049Z,12.10
2022-10-15T01:23:08.907Z,12.20
2022-10-15T01:25:45.855Z,12.10
2022-10-15T01:29:01.683Z,12.20
2022-10-15T01:31:42.944Z,12.20
2022-10-15T01:34:34.310Z,12.20
2022-10-15T01:37:21.386Z,12.20
2022-10-15T01:40:13.223Z,12.20
2022-10-15T01:42:52.551Z,12.20
2022-10-15T01:45:34.028Z,12.30
2022-10-15T01:48:06.467Z,12.30
2022-10-15T01:50:36.324Z,12.30
2022-10-15T01:53:05.220Z,12.30
2022-10-15T01:55:34.608Z,12.30
2022-10-15T01:58:03.811Z,12.30
2022-10-15T02:00:30.975Z,12.30
2022-10-15T02:03:01.912Z,12.30
2022-10-15T02:05:43.085Z,12.30
2022-10-15T02:08:23.516Z,12.30
2022-10-15T02:11:05.556Z,12.40
2022-10-15T02:13:52.920Z,12.30
2022-10-15T02:16:39.046Z,12.40
2022-10-15T02:19:32.910Z,12.40
2022-10-15T02:22:11.415Z,12.40
2022-10-15T02:25:06.441Z,12.40
2022-10-15T02:27:34.481Z,12.40
2022-10-15T02:30:08.347Z,12.40
2022-10-15T02:32:41.261Z,12.40
2022-10-15T02:35:10.805Z,12.40
2022-10-15T02:37:43.488Z,12.50
2022-10-15T02:40:11.218Z,12.50
2022-10-15T02:42:38.272Z,12.50
2022-10-15T02:45:05.883Z,12.50
2022-10-15T02:47:33.031Z,12.50
2022-10-15T02:50:00.261Z,12.50
2022-10-15T02:52:27.343Z,12.50
2022-10-15T02:54:54.410Z,12.50
2022-10-15T02:57:21.818Z,12.50
2022-10-15T02:59:49.102Z,12.50
2022-10-15T03:02:18.523Z,12.50
2022-10-15T03:04:46.807Z,12.50
2022-10-15T03:07:14.422Z,12.50
2022-10-15T03:09:41.634Z,12.50
2022-10-15T03:12:08.786Z,12.50
2022-10-15T03:14:36.136Z,12.50
2022-10-15T03:17:03.183Z,12.50
2022-10-15T03:19:30.287Z,12.50
2022-10-15T03:21:57.532Z,12.50
2022-10-15T03:24:24.573Z,12.60
2022-10-15T03:26:51.689Z,12.60
2022-10-15T03:29:18.756Z,12.60
2022-10-15T03:31:45.816Z,12.60
2022-10-15T03:34:13.018Z,12.60
2022-10-15T03:36:40.051Z,12.60
2022-10-15T03:39:08.479Z,12.60
2022-10-15T03:41:35.676Z,12.60
2022-10-15T03:44:04.652Z,12.60
2022-10-15T03:46:32.296Z,12.60
2022-10-15T03:48:59.811Z,12.60
2022-10-15T03:51:29.352Z,12.60
2022-10-15T03:53:58.614Z,12.60
2022-10-15T03:56:25.744Z,12.60
2022-10-15T03:58:52.988Z,12.60
2022-10-15T04:01:20.181Z,12.60
2022-10-15T04:03:47.431Z,12.60
2022-10-15T04:06:14.749Z,12.60
2022-10-15T04:08:41.845Z,12.60
2022-10-15T04:11:09.002Z,12.60
2022-10-15T04:13:36.192Z,12.60
2022-10-15T04:16:06.907Z,12.60
2022-10-15T04:18:34.129Z,12.60
2022-10-15T04:21:01.689Z,12.60
2022-10-15T04:23:28.831Z,12.60
2022-10-15T04:26:00.356Z,12.60
2022-10-15T04:28:28.208Z,12.50
2022-10-15T04:30:59.610Z,12.50
2022-10-15T04:33:27.405Z,12.50
2022-10-15T04:36:11.060Z,12.50
2022-10-15T04:38:38.196Z,12.50
2022-10-15T04:41:10.643Z,12.50
2022-10-15T04:43:38.777Z,12.50
2022-10-15T04:46:07.934Z,12.50
2022-10-15T04:48:40.353Z,12.50
2022-10-15T04:51:13.812Z,12.50
2022-10-15T04:53:41.491Z,12.50
2022-10-15T04:56:15.497Z,12.50
2022-10-15T04:58:43.991Z,12.50
2022-10-15T05:01:13.348Z,12.60
2022-10-15T05:03:44.949Z,12.60
2022-10-15T05:06:18.361Z,12.60
2022-10-15T05:08:46.128Z,12.60
2022-10-15T05:11:22.560Z,12.60
2022-10-15T05:13:50.064Z,12.60
2022-10-15T05:16:29.167Z,12.60
2022-10-15T05:19:01.768Z,12.60
2022-10-15T05:21:29.859Z,12.60
2022-10-15T05:23:57.725Z,12.60
2022-10-15T05:26:26.739Z,12.60
2022-10-15T05:28:53.959Z,12.60
2022-10-15T05:31:22.882Z,12.60
2022-10-15T05:33:51.602Z,12.60
2022-10-15T05:36:24.414Z,12.70
2022-10-15T05:38:53.757Z,12.70
2022-10-15T05:41:21.373Z,12.70
2022-10-15T05:43:50.213Z,12.70
2022-10-15T05:46:18.252Z,12.70
2022-10-15T05:48:53.345Z,12.70
2022-10-15T05:51:20.664Z,12.60
2022-10-15T05:53:48.041Z,12.60
2022-10-15T05:56:15.625Z,12.60
2022-10-15T05:58:42.766Z,12.60
2022-10-15T06:01:12.522Z,12.60
2022-10-15T06:03:41.613Z,12.60
2022-10-15T06:06:23.476Z,12.60
2022-10-15T06:08:51.656Z,12.70
2022-10-15T06:11:19.319Z,12.70
2022-10-15T06:13:47.295Z,12.70
2022-10-15T06:16:19.392Z,12.70
2022-10-15T06:18:51.301Z,12.80
2022-10-15T06:21:18.527Z,12.80
2022-10-15T06:23:45.970Z,12.80
2022-10-15T06:26:13.356Z,12.90
2022-10-15T06:28:41.347Z,12.90
2022-10-15T06:31:10.178Z,12.90
2022-10-15T06:33:37.634Z,12.90
2022-10-15T06:36:07.392Z,13.00
2022-10-15T06:38:35.059Z,13.00
2022-10-15T06:41:05.880Z,13.00
2022-10-15T06:43:35.219Z,13.10
2022-10-15T06:46:04.511Z,13.00
2022-10-15T06:48:32.932Z,13.10
2022-10-15T06:51:01.423Z,13.10
2022-10-15T06:53:30.181Z,13.10
2022-10-15T06:56:02.718Z,13.20
2022-10-15T06:58:31.102Z,13.20
2022-10-15T07:01:02.857Z,13.20
2022-10-15T07:03:30.267Z,13.30
2022-10-15T07:06:02.014Z,13.30
2022-10-15T07:08:29.118Z,13.30
2022-10-15T07:10:56.230Z,13.40
2022-10-15T07:13:23.280Z,13.40
2022-10-15T07:15:54.520Z,13.50
2022-10-15T07:18:21.882Z,13.50
2022-10-15T07:20:49.111Z,13.60
2022-10-15T07:23:16.313Z,13.60
2022-10-15T07:25:43.366Z,13.60
2022-10-15T07:28:10.464Z,13.60
2022-10-15T07:30:37.812Z,13.60
2022-10-15T07:33:04.936Z,13.70
2022-10-15T07:35:32.254Z,13.70
2022-10-15T07:38:02.266Z,13.70
2022-10-15T07:40:29.436Z,13.70
2022-10-15T07:43:00.766Z,13.70
2022-10-15T07:45:28.387Z,13.70
2022-10-15T07:47:55.786Z,13.70
2022-10-15T07:50:23.246Z,13.70
2022-10-15T07:52:50.396Z,13.70
2022-10-15T07:55:17.716Z,13.80
2022-10-15T07:57:44.804Z,13.80
2022-10-15T08:00:12.438Z,13.90
2022-10-15T08:02:40.173Z,13.90
2022-10-15T08:05:07.666Z,14.00
2022-10-15T08:07:34.766Z,14.00
2022-10-15T08:10:02.110Z,14.00
2022-10-15T08:12:29.347Z,14.00
2022-10-15T08:14:56.363Z,14.10
2022-10-15T08:17:23.493Z,14.10
2022-10-15T08:19:50.789Z,14.20
2022-10-15T08:22:17.866Z,14.20
2022-10-15T08:24:44.960Z,14.30
2022-10-15T08:27:12.314Z,14.40
2022-10-15T08:29:39.462Z,14.50
2022-10-15T08:32:06.693Z,14.60
2022-10-15T08:34:33.817Z,14.60
2022-10-15T08:37:01.003Z,14.70
2022-10-15T08:39:28.282Z,14.70
2022-10-15T08:42:01.879Z,14.80
2022-10-15T08:44:34.803Z,14.90
2022-10-15T08:47:05.819Z,15.00
2022-10-15T08:49:56.880Z,15.10
2022-10-15T08:52:43.369Z,15.10
2022-10-15T08:55:16.751Z,15.00
2022-10-15T08:57:56.063Z,15.00
2022-10-15T09:00:28.054Z,15.00
2022-10-15T09:02:58.326Z,14.90
2022-10-15T09:05:29.146Z,14.90
2022-10-15T09:08:24.595Z,14.90
2022-10-15T09:11:02.811Z,15.00
2022-10-15T09:13:41.211Z,15.00
2022-10-15T09:16:16.734Z,15.20
2022-10-15T09:18:50.131Z,15.20
2022-10-15T09:21:18.021Z,15.30
2022-10-15T09:23:45.487Z,15.40
2022-10-15T09:26:12.520Z,15.40
2022-10-15T09:28:50.274Z,15.40
2022-10-15T09:31:23.288Z,15.50
2022-10-15T09:34:14.976Z,15.60
2022-10-15T09:36:44.977Z,15.80
2022-10-15T09:39:47.073Z,15.90
2022-10-15T09:42:41.767Z,16.10
2022-10-15T09:45:14.352Z,16.20
2022-10-15T09:47:42.942Z,16.10
2022-10-15T09:50:13.553Z,16.00
2022-10-15T09:52:55.931Z,15.90
2022-10-15T09:55:36.510Z,15.70
2022-10-15T09:58:14.774Z,15.60
2022-10-15T10:01:03.065Z,15.50
2022-10-15T10:03:33.010Z,15.50
2022-10-15T10:06:11.932Z,15.40
2022-10-15T10:08:46.540Z,15.50
2022-10-15T10:11:14.009Z,15.60
2022-10-15T10:13:55.067Z,15.70
2022-10-15T10:16:23.160Z,15.70
2022-10-15T10:19:13.408Z,15.60
2022-10-15T10:21:43.015Z,15.50
2022-10-15T10:24:32.161Z,15.40
2022-10-15T10:27:00.620Z,15.40
2022-10-15T10:29:34.205Z,15.40
2022-10-15T10:32:12.666Z,15.30
2022-10-15T10:34:43.142Z,15.30
2022-10-15T10:37:11.667Z,15.20
2022-10-15T10:39:38.863Z,15.30
2022-10-15T10:42:07.197Z,15.40
2022-10-15T10:44:37.502Z,15.30
2022-10-15T10:47:16.769Z,15.30
2022-10-15T10:49:49.760Z,15.40
2022-10-15T10:52:27.790Z,15.50
2022-10-15T10:55:12.846Z,15.60
2022-10-15T10:57:56.539Z,15.50
2022-10-15T11:00:42.978Z,15.50
2022-10-15T11:03:33.577Z,15.50
2022-10-15T11:06:33.729Z,15.60
2022-10-15T11:09:12.105Z,15.70
2022-10-15T11:11:57.641Z,15.80
2022-10-15T11:14:44.103Z,15.90
2022-10-15T11:17:36.995Z,16.00
2022-10-15T11:20:29.170Z,15.90
2022-10-15T11:23:07.292Z,15.80
2022-10-15T11:25:39.375Z,15.80
2022-10-15T11:28:43.993Z,15.80
2022-10-15T11:34:08.423Z,16.10
2022-10-15T11:36:42.698Z,16.20
2022-10-15T11:39:38.768Z,16.30
2022-10-15T11:42:14.476Z,16.40
2022-10-15T11:45:06.475Z,16.40
2022-10-15T11:47:58.077Z,16.50
2022-10-15T11:50:41.883Z,16.30
2022-10-15T11:53:33.627Z,16.20
2022-10-15T11:56:19.436Z,16.20
2022-10-15T11:58:55.019Z,16.30
2022-10-15T12:01:48.577Z,16.40
2022-10-15T12:04:27.657Z,16.40
2022-10-15T12:06:59.193Z,16.40
2022-10-15T12:09:32.052Z,16.40
2022-10-15T12:12:04.371Z,16.40
2022-10-15T12:15:02.291Z,16.50
2022-10-15T12:17:47.184Z,16.60
2022-10-15T12:20:21.006Z,16.60
2022-10-15T12:22:48.194Z,16.60
2022-10-15T12:25:33.848Z,16.60
2022-10-15T12:28:24.086Z,16.60
2022-10-15T12:31:09.173Z,16.60
2022-10-15T12:34:05.594Z,16.60
2022-10-15T12:36:33.621Z,16.60
2022-10-15T12:39:16.084Z,16.70
2022-10-15T12:41:54.354Z,16.70
2022-10-15T12:44:29.023Z,16.60
2022-10-15T12:46:56.968Z,16.50
2022-10-15T12:49:27.172Z,16.50
2022-10-15T12:52:30.190Z,16.50
2022-10-15T12:55:21.412Z,16.40
2022-10-15T12:57:48.472Z,16.30
2022-10-15T13:00:35.929Z,16.30
2022-10-15T13:03:34.824Z,16.30
2022-10-15T13:06:33.528Z,16.30
2022-10-15T13:09:06.460Z,16.20
2022-10-15T13:11:42.408Z,16.20
2022-10-15T13:14:12.587Z,16.20
2022-10-15T13:16:44.717Z,16.20
2022-10-15T13:19:19.041Z,16.20
2022-10-15T13:22:01.553Z,16.20
2022-10-15T13:24:49.652Z,16.20
2022-10-15T13:27:22.181Z,16.30
2022-10-15T13:30:06.277Z,16.30
2022-10-15T13:32:46.453Z,16.20
2022-10-15T13:35:18.836Z,16.10
2022-10-15T13:37:47.056Z,16.10
2022-10-15T13:40:29.521Z,16.10
2022-10-15T13:43:01.326Z,14.60
2022-10-15T13:45:29.651Z,15.90
2022-10-15T13:47:56.839Z,15.90
2022-10-15T13:50:27.040Z,15.80
2022-10-15T13:53:16.855Z,16.40
2022-10-15T13:55:50.488Z,15.90
2022-10-15T13:58:38.018Z,15.80
2022-10-15T14:01:14.643Z,15.70
2022-10-15T14:03:52.106Z,15.60
2022-10-15T14:06:22.558Z,15.50
2022-10-15T14:09:01.896Z,15.40
2022-10-15T14:11:30.211Z,15.40
2022-10-15T14:13:59.077Z,15.40
2022-10-15T14:16:47.996Z,15.50
2022-10-15T14:19:21.445Z,15.50
2022-10-15T14:21:52.452Z,15.60
2022-10-15T14:24:31.298Z,15.70
2022-10-15T14:27:15.239Z,15.70
2022-10-15T14:29:52.911Z,15.80
2022-10-15T14:32:48.061Z,15.80
2022-10-15T14:35:36.016Z,15.80
2022-10-15T14:38:26.075Z,15.80
2022-10-15T14:41:07.982Z,15.80
2022-10-15T14:43:38.692Z,15.80
2022-10-15T14:46:08.576Z,15.70
2022-10-15T14:48:40.949Z,15.60
2022-10-15T14:51:14.588Z,15.40
2022-10-15T14:53:46.913Z,15.20
2022-10-15T14:56:26.227Z,15.10
2022-10-15T14:58:57.052Z,14.90
2022-10-15T15:01:24.968Z,14.80
2022-10-15T15:03:57.264Z,14.70
2022-10-15T15:06:24.473Z,14.60
2022-10-15T15:08:51.607Z,14.60
2022-10-15T15:11:24.022Z,14.50
2022-10-15T15:13:51.816Z,14.50
2022-10-15T15:16:19.675Z,14.40
2022-10-15T15:18:48.923Z,14.40
2022-10-15T15:21:21.208Z,14.30
2022-10-15T15:23:49.258Z,14.30
2022-10-15T15:26:16.301Z,14.30
2022-10-15T15:28:43.472Z,14.20
2022-10-15T15:31:19.040Z,14.20
2022-10-15T15:33:46.372Z,14.10
2022-10-15T15:36:19.004Z,14.10
2022-10-15T15:38:50.959Z,14.00
2022-10-15T15:41:23.311Z,13.90
2022-10-15T15:43:50.769Z,13.90
2022-10-15T15:46:18.537Z,13.80
2022-10-15T15:48:45.585Z,13.70
2022-10-15T15:51:24.938Z,13.70
2022-10-15T15:53:52.395Z,13.60
2022-10-15T15:56:19.486Z,13.60
2022-10-15T15:58:47.204Z,13.50
2022-10-15T16:01:14.647Z,13.50
2022-10-15T16:03:41.673Z,13.50
2022-10-15T16:06:09.076Z,13.40
2022-10-15T16:08:37.310Z,13.40
2022-10-15T16:11:06.095Z,13.30
2022-10-15T16:13:34.016Z,13.20
2022-10-15T16:16:01.115Z,13.10
2022-10-15T16:18:28.324Z,13.10
2022-10-15T16:20:55.580Z,13.00
2022-10-15T16:23:22.950Z,12.90
2022-10-15T16:25:50.048Z,12.80
2022-10-15T16:28:17.357Z,12.80
2022-10-15T16:30:44.545Z,12.80
2022-10-15T16:33:11.668Z,12.70
2022-10-15T16:35:39.119Z,12.70
2022-10-15T16:38:06.200Z,12.70
2022-10-15T16:40:33.783Z,12.70
2022-10-15T16:43:01.842Z,12.60
2022-10-15T16:45:28.997Z,12.60
2022-10-15T16:47:56.406Z,12.60
2022-10-15T16:50:23.960Z,12.60
2022-10-15T16:52:51.114Z,12.60
2022-10-15T16:55:18.357Z,12.60
2022-10-15T16:57:45.490Z,12.60
2022-10-15T17:00:13.478Z,12.60
2022-10-15T17:02:40.543Z,12.60
2022-10-15T17:05:08.479Z,12.60
2022-10-15T17:07:35.809Z,13.60
2022-10-15T17:10:02.985Z,12.60
2022-10-15T17:12:30.334Z,12.70
2022-10-15T17:14:57.643Z,12.70
2022-10-15T17:17:24.778Z,12.80
2022-10-15T17:19:51.978Z,12.80
2022-10-15T17:22:21.145Z,12.80
2022-10-15T17:24:49.992Z,12.80
2022-10-15T17:27:17.434Z,12.80
2022-10-15T17:29:45.494Z,12.90
2022-10-15T17:32:12.746Z,12.90
2022-10-15T17:34:39.946Z,12.90
2022-10-15T17:37:08.073Z,12.90
2022-10-15T17:39:35.607Z,12.90
2022-10-15T17:42:02.886Z,12.90
2022-10-15T17:44:30.134Z,12.90
2022-10-15T17:46:57.692Z,12.90
2022-10-15T17:49:26.218Z,12.90
2022-10-15T17:51:53.541Z,13.00
2022-10-15T17:54:20.831Z,13.00
2022-10-15T17:56:48.824Z,13.00
2022-10-15T17:59:19.128Z,13.00
2022-10-15T18:02:02.716Z,13.10
2022-10-15T18:04:31.806Z,13.00
2022-10-15T18:06:59.682Z,13.00
2022-10-15T18:09:30.964Z,13.00
2022-10-15T18:12:00.831Z,13.00
2022-10-15T18:14:29.831Z,13.10
2022-10-15T18:16:57.466Z,13.10
2022-10-15T18:19:27.007Z,13.10
2022-10-15T18:21:55.693Z,13.20
2022-10-15T18:24:23.975Z,13.20
2022-10-15T18:26:51.945Z,13.30
2022-10-15T18:29:20.307Z,13.30
2022-10-15T18:31:52.226Z,13.30
2022-10-15T18:34:22.875Z,13.30
2022-10-15T18:36:50.400Z,13.40
2022-10-15T18:39:17.926Z,13.40
2022-10-15T18:41:45.798Z,13.40
2022-10-15T18:44:17.004Z,13.40
2022-10-15T18:46:48.059Z,13.40
2022-10-15T18:49:17.250Z,13.40
2022-10-15T18:51:46.775Z,13.40
2022-10-15T18:54:14.342Z,13.40
2022-10-15T18:56:41.799Z,13.40
2022-10-15T18:59:09.141Z,13.50
2022-10-15T19:01:42.094Z,13.50
2022-10-15T19:04:19.696Z,13.50
2022-10-15T19:06:49.279Z,12.20
2022-10-15T19:09:22.406Z,13.50
2022-10-15T19:11:51.854Z,13.50
2022-10-15T19:14:19.695Z,13.60
2022-10-15T19:16:47.538Z,13.60
2022-10-15T19:19:17.061Z,13.60
2022-10-15T19:21:45.845Z,13.60
2022-10-15T19:24:14.941Z,13.70
2022-10-15T19:26:43.226Z,13.70
2022-10-15T19:29:10.822Z,13.70
2022-10-15T19:31:41.411Z,13.70
2022-10-15T19:34:16.564Z,13.80
2022-10-15T19:36:48.863Z,13.80
2022-10-15T19:39:22.278Z,13.80
2022-10-15T19:41:57.132Z,13.80
2022-10-15T19:44:29.075Z,13.90
2022-10-15T19:47:01.384Z,13.90
2022-10-15T19:49:29.622Z,13.90
2022-10-15T19:52:01.503Z,13.90
2022-10-15T19:54:32.878Z,13.90
2022-10-15T19:57:03.255Z,14.00
2022-10-15T19:59:30.555Z,14.00
2022-10-15T20:02:00.279Z,14.00
2022-10-15T20:04:28.876Z,14.00
2022-10-15T20:07:04.308Z,14.00
2022-10-15T20:09:31.884Z,14.00
2022-10-15T20:12:03.619Z,14.10
2022-10-15T20:14:34.430Z,14.10
2022-10-15T20:17:07.811Z,14.10
2022-10-15T20:19:38.672Z,14.10
2022-10-15T20:22:14.003Z,14.10
2022-10-15T20:24:45.304Z,14.10
2022-10-15T20:27:16.692Z,14.20
2022-10-15T20:29:47.351Z,14.20
2022-10-15T20:32:30.326Z,14.20
2022-10-15T20:35:02.000Z,13.20
2022-10-15T20:37:32.369Z,14.20
2022-10-15T20:40:09.219Z,14.20
2022-10-15T20:42:39.074Z,14.20
2022-10-15T20:45:14.766Z,14.20
2022-10-15T20:47:47.473Z,14.20
2022-10-15T20:50:19.926Z,14.20
2022-10-15T20:52:50.730Z,14.20
2022-10-15T20:55:18.221Z,14.20
2022-10-15T20:57:48.703Z,14.20
2022-10-15T21:00:15.973Z,14.20
2022-10-15T21:02:43.232Z,14.10
2022-10-15T21:05:10.865Z,14.10
2022-10-15T21:07:42.094Z,14.10
2022-10-15T21:10:09.577Z,14.10
2022-10-15T21:12:36.695Z,14.10
2022-10-15T21:15:04.406Z,14.10
2022-10-15T21:17:34.670Z,14.10
2022-10-15T21:20:06.146Z,14.10
2022-10-15T21:22:33.165Z,14.10
2022-10-15T21:25:00.199Z,14.10
2022-10-15T21:27:27.604Z,14.10
2022-10-15T21:29:55.102Z,14.10
2022-10-15T21:32:22.404Z,14.10
2022-10-15T21:34:49.516Z,14.10
2022-10-15T21:37:16.620Z,14.10
2022-10-15T21:39:43.780Z,14.10
2022-10-15T21:42:11.023Z,14.10
2022-10-15T21:44:41.614Z,14.10
2022-10-15T21:47:10.427Z,14.10
2022-10-15T21:49:41.826Z,14.10
2022-10-15T21:52:08.930Z,14.10
2022-10-15T21:54:36.138Z,14.10
2022-10-15T21:57:03.302Z,14.10
2022-10-15T21:59:30.355Z,14.10
2022-10-15T22:01:57.707Z,14.10
2022-10-15T22:04:24.994Z,14.20
2022-10-15T22:06:52.152Z,14.20
2022-10-15T22:09:19.305Z,14.20
2022-10-15T22:11:46.511Z,14.20
2022-10-15T22:14:14.266Z,14.20
2022-10-15T22:16:41.887Z,14.20
2022-10-15T22:19:11.092Z,14.20
2022-10-15T22:21:41.777Z,14.20
2022-10-15T22:24:13.833Z,14.20
2022-10-15T22:26:44.276Z,14.20
2022-10-15T22:29:21.419Z,14.20
2022-10-15T22:31:49.470Z,14.20
2022-10-15T22:34:17.163Z,14.10
2022-10-15T22:36:44.394Z,14.10
2022-10-15T22:39:14.372Z,14.10
2022-10-15T22:41:43.517Z,14.10
2022-10-15T22:44:14.560Z,14.00
2022-10-15T22:46:46.317Z,13.90
2022-10-15T22:49:14.541Z,13.80
2022-10-15T22:51:42.249Z,13.70
2022-10-15T22:54:09.568Z,13.70
2022-10-15T22:56:38.305Z,13.60
2022-10-15T22:59:05.658Z,13.60
2022-10-15T23:01:33.893Z,13.60
2022-10-15T23:04:03.650Z,13.50
2022-10-15T23:06:33.796Z,13.50
2022-10-15T23:09:02.087Z,13.50
2022-10-15T23:11:34.705Z,13.60
2022-10-15T23:14:07.679Z,13.60
2022-10-15T23:16:37.767Z,13.60
2022-10-15T23:19:12.076Z,13.60
2022-10-15T23:21:45.618Z,13.70
2022-10-15T23:24:14.169Z,13.70
2022-10-15T23:26:45.252Z,13.70
2022-10-15T23:29:16.592Z,13.60
2022-10-15T23:31:44.537Z,13.60
2022-10-15T23:34:22.207Z,13.60
2022-10-15T23:36:49.857Z,13.60
2022-10-15T23:39:19.844Z,13.60
2022-10-15T23:41:47.166Z,13.60
2022-10-15T23:44:14.555Z,13.60
2022-10-15T23:46:42.026Z,13.60
2022-10-15T23:49:12.831Z,13.60
2022-10-15T23:51:44.143Z,13.60
2022-10-15T23:54:16.511Z,13.60
2022-10-15T23:56:45.040Z,13.50
2022-10-15T23:59:12.448Z,13.50
